Time;durP1;ratioP1;P1;durP2;ratioP2;P2;SDS_P1;SDS_P2;PMS_P1;PMS_P2;Temp;Humidity;BMP_temperature;BMP_pressure;BME280_temperature;BME280_humidity;BME280_pressure;Samples;Min_cycle;Max_cycle;Signal;HPM_P1;HPM_P2
2023/07/09 00:01:27;;;;;;;7.95;5.55;;;;;;;;;;5126931;27;20052;-62
2023/07/09 00:03:54;;;;;;;6.32;5.28;;;;;;;;;;5124915;27;20081;-64
2023/07/09 00:06:20;;;;;;;7.53;5.38;;;;;;;;;;5123456;27;20054;-67
2023/07/09 00:08:48;;;;;;;11.00;5.97;;;;;;;;;;5118581;27;20508;-67
2023/07/09 00:11:15;;;;;;;7.10;4.80;;;;;;;;;;5121833;27;20052;-67
2023/07/09 00:13:42;;;;;;;8.30;4.93;;;;;;;;;;5120569;27;20086;-61
2023/07/09 00:16:13;;;;;;;8.45;5.40;;;;;;;;;;5120049;27;20101;-61
2023/07/09 00:18:39;;;;;;;8.88;5.35;;;;;;;;;;5125217;27;20608;-67
2023/07/09 00:21:06;;;;;;;10.00;5.97;;;;;;;;;;5125370;27;20065;-65
2023/07/09 00:23:33;;;;;;;10.38;5.72;;;;;;;;;;5109830;27;20078;-62
2023/07/09 00:25:59;;;;;;;8.55;5.90;;;;;;;;;;5123563;27;20139;-67
2023/07/09 00:28:26;;;;;;;8.75;5.05;;;;;;;;;;5124610;27;20047;-65
2023/07/09 00:30:52;;;;;;;10.45;5.70;;;;;;;;;;5117453;27;20052;-66
2023/07/09 00:33:19;;;;;;;11.05;6.10;;;;;;;;;;5114567;27;20182;-66
2023/07/09 00:35:46;;;;;;;9.02;5.60;;;;;;;;;;5122684;27;20113;-66
2023/07/09 00:38:13;;;;;;;8.55;6.03;;;;;;;;;;5124801;27;20047;-68
2023/07/09 00:40:46;;;;;;;8.50;5.78;;;;;;;;;;5123719;27;20043;-66
2023/07/09 00:43:15;;;;;;;10.02;6.72;;;;;;;;;;5124809;27;20135;-66
2023/07/09 00:45:42;;;;;;;8.15;5.70;;;;;;;;;;5126117;27;20047;-65
2023/07/09 00:48:12;;;;;;;9.40;6.13;;;;;;;;;;5123888;27;20056;-60
2023/07/09 00:50:45;;;;;;;14.90;7.38;;;;;;;;;;5123125;27;20051;-66
2023/07/09 00:53:17;;;;;;;10.00;7.18;;;;;;;;;;5122945;27;20448;-66
2023/07/09 00:55:46;;;;;;;15.50;7.43;;;;;;;;;;5124188;27;20539;-67
2023/07/09 00:58:15;;;;;;;10.60;7.55;;;;;;;;;;5124103;27;20055;-66
2023/07/09 01:00:47;;;;;;;11.20;7.75;;;;;;;;;;5123052;27;20058;-62
2023/07/09 01:03:22;;;;;;;11.48;8.07;;;;;;;;;;5127962;27;20062;-67
2023/07/09 01:05:51;;;;;;;11.70;8.05;;;;;;;;;;5122236;27;20452;-66
2023/07/09 01:08:19;;;;;;;13.13;7.55;;;;;;;;;;5126940;27;20456;-66
2023/07/09 01:10:46;;;;;;;10.35;7.72;;;;;;;;;;5115710;27;20563;-66
2023/07/09 01:13:12;;;;;;;12.80;8.05;;;;;;;;;;5126534;27;20048;-66
2023/07/09 01:15:39;;;;;;;13.95;8.75;;;;;;;;;;5139977;27;20055;-62
2023/07/09 01:18:05;;;;;;;13.35;7.75;;;;;;;;;;5123417;27;20051;-63
2023/07/09 01:20:33;;;;;;;11.55;8.18;;;;;;;;;;5124504;27;20529;-60
2023/07/09 01:23:00;;;;;;;13.07;8.63;;;;;;;;;;5125827;27;20064;-66
2023/07/09 01:25:28;;;;;;;11.02;8.65;;;;;;;;;;5124079;27;20513;-63
2023/07/09 01:27:54;;;;;;;13.15;8.70;;;;;;;;;;5124520;27;20062;-67
2023/07/09 01:30:26;;;;;;;12.18;8.77;;;;;;;;;;5123132;27;20773;-66
2023/07/09 01:32:56;;;;;;;15.43;9.30;;;;;;;;;;5123565;27;20055;-66
2023/07/09 01:35:23;;;;;;;14.90;9.15;;;;;;;;;;5124244;27;20082;-64
2023/07/09 01:37:50;;;;;;;11.40;8.32;;;;;;;;;;5124049;27;20075;-65
2023/07/09 01:40:18;;;;;;;12.68;9.10;;;;;;;;;;5123723;27;20052;-66
2023/07/09 01:42:58;;;;;;;12.60;9.23;;;;;;;;;;5122909;27;20048;-65
2023/07/09 01:45:24;;;;;;;17.08;10.00;;;;;;;;;;5122986;27;20051;-61
2023/07/09 01:47:53;;;;;;;14.10;9.20;;;;;;;;;;5123402;27;20139;-67
2023/07/09 01:50:20;;;;;;;16.15;9.20;;;;;;;;;;5123157;27;20057;-66
2023/07/09 01:52:49;;;;;;;10.95;9.10;;;;;;;;;;5123052;27;20055;-66
2023/07/09 01:55:16;;;;;;;12.13;8.65;;;;;;;;;;5123145;27;20143;-66
2023/07/09 01:57:43;;;;;;;13.13;9.30;;;;;;;;;;5122750;27;20060;-66
2023/07/09 02:00:11;;;;;;;15.93;8.35;;;;;;;;;;5123173;27;20481;-65
2023/07/09 02:02:38;;;;;;;14.38;8.40;;;;;;;;;;5122199;27;20134;-67
2023/07/09 02:05:05;;;;;;;12.15;8.38;;;;;;;;;;5123005;27;20047;-67
2023/07/09 02:07:32;;;;;;;15.93;9.05;;;;;;;;;;5124030;27;20048;-65
2023/07/09 02:09:58;;;;;;;14.23;8.93;;;;;;;;;;5102169;27;20060;-62
2023/07/09 02:12:26;;;;;;;13.48;8.80;;;;;;;;;;5116797;27;20048;-62
2023/07/09 02:14:53;;;;;;;12.35;8.45;;;;;;;;;;5113663;27;20131;-67
2023/07/09 02:17:19;;;;;;;13.82;9.02;;;;;;;;;;5123103;27;20060;-67
2023/07/09 02:19:46;;;;;;;15.05;8.73;;;;;;;;;;5117498;27;20079;-66
2023/07/09 02:22:12;;;;;;;15.93;8.88;;;;;;;;;;5123343;27;20091;-65
2023/07/09 02:24:39;;;;;;;12.23;8.63;;;;;;;;;;5122125;27;20112;-64
2023/07/09 02:27:06;;;;;;;13.73;8.13;;;;;;;;;;5123376;27;20052;-67
2023/07/09 02:29:33;;;;;;;14.02;9.32;;;;;;;;;;5122271;27;20047;-66
2023/07/09 02:32:00;;;;;;;13.15;8.48;;;;;;;;;;5123408;27;20051;-65
2023/07/09 02:34:28;;;;;;;12.88;7.70;;;;;;;;;;5121377;27;20410;-61
2023/07/09 02:36:55;;;;;;;14.38;7.95;;;;;;;;;;5090256;27;20130;-66
2023/07/09 02:39:22;;;;;;;13.90;8.45;;;;;;;;;;5123479;27;20782;-66
2023/07/09 02:41:49;;;;;;;11.77;8.30;;;;;;;;;;5122039;27;20138;-64
2023/07/09 02:44:16;;;;;;;11.18;7.85;;;;;;;;;;5122110;27;20116;-66
2023/07/09 02:46:42;;;;;;;12.00;8.13;;;;;;;;;;5124069;27;20083;-67
2023/07/09 02:49:09;;;;;;;10.10;7.82;;;;;;;;;;5121904;27;20662;-67
2023/07/09 02:51:36;;;;;;;10.32;7.70;;;;;;;;;;5122932;27;20139;-67
2023/07/09 02:54:03;;;;;;;13.00;8.52;;;;;;;;;;5121609;27;20136;-61
2023/07/09 02:56:30;;;;;;;11.23;6.90;;;;;;;;;;5123279;27;20122;-67
2023/07/09 02:58:56;;;;;;;16.17;8.15;;;;;;;;;;5118618;27;20617;-65
2023/07/09 03:01:24;;;;;;;13.60;7.63;;;;;;;;;;5120823;27;20059;-66
2023/07/09 03:03:52;;;;;;;13.57;7.78;;;;;;;;;;5120744;27;20443;-67
2023/07/09 03:06:22;;;;;;;13.30;7.32;;;;;;;;;;5122273;27;20135;-66
2023/07/09 03:08:49;;;;;;;11.38;7.60;;;;;;;;;;5113222;27;20113;-62
2023/07/09 03:11:16;;;;;;;12.88;7.68;;;;;;;;;;5126580;27;20051;-67
2023/07/09 03:13:43;;;;;;;14.52;7.95;;;;;;;;;;5119243;27;20043;-66
2023/07/09 03:16:10;;;;;;;10.60;7.15;;;;;;;;;;5121141;27;20058;-65
2023/07/09 03:18:36;;;;;;;13.23;7.15;;;;;;;;;;5125021;27;20139;-66
2023/07/09 03:21:02;;;;;;;11.32;7.60;;;;;;;;;;5125737;27;20085;-65
2023/07/09 03:23:29;;;;;;;12.55;8.18;;;;;;;;;;5127250;27;20055;-66
2023/07/09 03:25:55;;;;;;;9.57;7.20;;;;;;;;;;5125717;27;20047;-62
2023/07/09 03:28:22;;;;;;;9.60;7.35;;;;;;;;;;5125386;27;20116;-66
2023/07/09 03:30:52;;;;;;;11.90;6.82;;;;;;;;;;5124998;27;20146;-67
2023/07/09 03:33:18;;;;;;;11.38;7.03;;;;;;;;;;5125643;27;20166;-66
2023/07/09 03:35:45;;;;;;;11.50;7.78;;;;;;;;;;5125694;27;20134;-67
2023/07/09 03:38:11;;;;;;;10.55;7.32;;;;;;;;;;5126048;27;20051;-66
2023/07/09 03:40:38;;;;;;;16.35;7.35;;;;;;;;;;5125745;27;20831;-66
2023/07/09 03:43:05;;;;;;;15.50;7.35;;;;;;;;;;5124851;27;20577;-63
2023/07/09 03:45:32;;;;;;;9.38;6.70;;;;;;;;;;5124665;27;20133;-67
2023/07/09 03:47:59;;;;;;;8.82;7.07;;;;;;;;;;5124346;27;20066;-66
2023/07/09 03:50:25;;;;;;;16.60;8.18;;;;;;;;;;5124991;27;20062;-64
2023/07/09 03:52:52;;;;;;;9.77;6.82;;;;;;;;;;5124032;27;20137;-67
2023/07/09 03:55:19;;;;;;;12.30;7.32;;;;;;;;;;5124998;27;20508;-66
2023/07/09 03:57:45;;;;;;;10.77;7.38;;;;;;;;;;5125021;27;20059;-67
2023/07/09 04:00:12;;;;;;;12.27;7.15;;;;;;;;;;5124103;27;20162;-66
2023/07/09 04:02:39;;;;;;;11.70;7.43;;;;;;;;;;5125040;27;20486;-64
2023/07/09 04:05:06;;;;;;;13.60;7.72;;;;;;;;;;5121894;27;20055;-66
2023/07/09 04:07:33;;;;;;;11.00;6.97;;;;;;;;;;5125563;27;20478;-65
2023/07/09 04:09:59;;;;;;;12.57;7.25;;;;;;;;;;5121777;27;20056;-67
2023/07/09 04:12:25;;;;;;;13.27;7.60;;;;;;;;;;5123815;27;20660;-66
2023/07/09 04:14:52;;;;;;;10.15;7.15;;;;;;;;;;5124383;27;21472;-66
2023/07/09 04:17:19;;;;;;;12.98;7.80;;;;;;;;;;5127219;27;20056;-66
2023/07/09 04:19:45;;;;;;;12.38;6.90;;;;;;;;;;5123302;27;20158;-66
2023/07/09 04:22:12;;;;;;;12.15;6.95;;;;;;;;;;5115489;27;20052;-66
2023/07/09 04:24:38;;;;;;;17.52;7.70;;;;;;;;;;5126155;27;20513;-64
2023/07/09 04:27:05;;;;;;;8.90;7.05;;;;;;;;;;5124781;27;20555;-66
2023/07/09 04:29:35;;;;;;;10.48;7.80;;;;;;;;;;5124323;27;20505;-67
2023/07/09 04:32:02;;;;;;;9.18;6.68;;;;;;;;;;5124358;27;20479;-62
2023/07/09 04:34:29;;;;;;;11.93;7.38;;;;;;;;;;5123676;27;20060;-60
2023/07/09 04:36:55;;;;;;;13.55;6.75;;;;;;;;;;5124157;27;20544;-61
2023/07/09 04:39:22;;;;;;;12.57;7.20;;;;;;;;;;5124984;27;20080;-65
2023/07/09 04:41:48;;;;;;;14.88;6.97;;;;;;;;;;5123793;27;20055;-66
2023/07/09 04:44:15;;;;;;;12.48;7.35;;;;;;;;;;5123285;27;20048;-66
2023/07/09 04:46:41;;;;;;;9.15;7.00;;;;;;;;;;5126756;27;20062;-62
2023/07/09 04:49:10;;;;;;;9.93;7.20;;;;;;;;;;5112978;27;20052;-63
2023/07/09 04:51:36;;;;;;;12.05;7.35;;;;;;;;;;5117277;27;20059;-62
2023/07/09 04:54:03;;;;;;;8.32;6.50;;;;;;;;;;5124463;27;20112;-66
2023/07/09 04:56:30;;;;;;;10.35;7.47;;;;;;;;;;5124661;27;20567;-66
2023/07/09 04:58:57;;;;;;;11.23;6.72;;;;;;;;;;5124978;27;20059;-67
2023/07/09 05:01:23;;;;;;;12.02;6.65;;;;;;;;;;5104924;27;20144;-65
2023/07/09 05:03:50;;;;;;;9.85;6.63;;;;;;;;;;5127931;27;20051;-65
2023/07/09 05:06:16;;;;;;;14.40;7.03;;;;;;;;;;5119572;27;20260;-66
2023/07/09 05:08:43;;;;;;;10.68;6.68;;;;;;;;;;5121717;27;20059;-66
2023/07/09 05:11:11;;;;;;;12.68;7.35;;;;;;;;;;5125151;27;20052;-67
2023/07/09 05:13:37;;;;;;;10.13;6.85;;;;;;;;;;5123429;27;20048;-62
2023/07/09 05:16:04;;;;;;;11.88;6.90;;;;;;;;;;5127315;27;20052;-64
2023/07/09 05:18:30;;;;;;;10.38;7.55;;;;;;;;;;5139525;27;20052;-66
2023/07/09 05:20:57;;;;;;;11.90;7.82;;;;;;;;;;5124751;27;20547;-59
2023/07/09 05:23:24;;;;;;;8.68;6.45;;;;;;;;;;5124352;27;20090;-59
2023/07/09 05:25:57;;;;;;;10.25;7.05;;;;;;;;;;5123965;27;20079;-54
2023/07/09 05:28:23;;;;;;;16.38;8.13;;;;;;;;;;5121161;27;20102;-60
2023/07/09 05:30:50;;;;;;;9.63;7.32;;;;;;;;;;5122623;27;20048;-60
2023/07/09 05:33:17;;;;;;;12.35;6.93;;;;;;;;;;5124339;27;20130;-61
2023/07/09 05:35:44;;;;;;;8.38;6.85;;;;;;;;;;5123560;27;20048;-57
2023/07/09 05:38:11;;;;;;;16.80;7.97;;;;;;;;;;5124004;27;20610;-60
2023/07/09 05:40:37;;;;;;;10.10;7.43;;;;;;;;;;5123403;27;20335;-59
2023/07/09 05:43:04;;;;;;;8.73;6.68;;;;;;;;;;5123515;27;20052;-61
2023/07/09 05:45:31;;;;;;;11.63;7.70;;;;;;;;;;5120659;27;20571;-60
2023/07/09 05:47:58;;;;;;;10.60;7.43;;;;;;;;;;5122207;27;20100;-60
2023/07/09 05:50:26;;;;;;;9.48;6.60;;;;;;;;;;5119486;27;20119;-53
2023/07/09 05:52:52;;;;;;;10.50;6.82;;;;;;;;;;5115417;27;20094;-53
2023/07/09 05:55:18;;;;;;;12.73;8.18;;;;;;;;;;5123430;27;20592;-61
2023/07/09 05:57:45;;;;;;;12.82;7.63;;;;;;;;;;5123111;27;20105;-61
2023/07/09 06:00:12;;;;;;;11.75;7.28;;;;;;;;;;5121562;27;20056;-56
2023/07/09 06:02:38;;;;;;;12.63;7.45;;;;;;;;;;5111549;27;20056;-57
2023/07/09 06:05:09;;;;;;;10.80;7.32;;;;;;;;;;5123077;27;20584;-61
2023/07/09 06:07:35;;;;;;;10.27;7.30;;;;;;;;;;5125033;27;20112;-62
2023/07/09 06:10:02;;;;;;;11.25;7.45;;;;;;;;;;5122687;27;20059;-60
2023/07/09 06:12:28;;;;;;;16.20;6.75;;;;;;;;;;5118316;27;20060;-61
2023/07/09 06:14:55;;;;;;;14.45;6.70;;;;;;;;;;5123468;27;20516;-61
2023/07/09 06:17:21;;;;;;;12.40;7.47;;;;;;;;;;5117198;27;20048;-58
2023/07/09 06:19:48;;;;;;;11.55;7.78;;;;;;;;;;5122116;27;20047;-59
2023/07/09 06:22:14;;;;;;;9.45;6.60;;;;;;;;;;5124262;27;20166;-60
2023/07/09 06:24:41;;;;;;;8.20;6.82;;;;;;;;;;5123358;27;20052;-59
2023/07/09 06:27:09;;;;;;;10.55;7.30;;;;;;;;;;5104839;27;20497;-57
2023/07/09 06:29:35;;;;;;;12.55;7.63;;;;;;;;;;5124413;27;20071;-60
2023/07/09 06:32:02;;;;;;;11.10;7.63;;;;;;;;;;5123797;27;20051;-58
2023/07/09 06:34:28;;;;;;;11.98;7.60;;;;;;;;;;5123753;27;20051;-60
2023/07/09 06:36:56;;;;;;;13.48;7.88;;;;;;;;;;5123689;27;20517;-59
2023/07/09 06:39:22;;;;;;;11.10;8.68;;;;;;;;;;5123735;27;20186;-60
2023/07/09 06:41:48;;;;;;;9.48;7.50;;;;;;;;;;5104025;27;20051;-58
2023/07/09 06:44:15;;;;;;;12.82;6.75;;;;;;;;;;5123309;27;20052;-60
2023/07/09 06:46:41;;;;;;;12.38;7.80;;;;;;;;;;5104335;27;20131;-60
2023/07/09 06:49:08;;;;;;;12.70;7.57;;;;;;;;;;5123643;27;20551;-60
2023/07/09 06:51:35;;;;;;;12.02;8.25;;;;;;;;;;5123657;27;20051;-57
2023/07/09 06:54:01;;;;;;;9.90;7.55;;;;;;;;;;5126447;27;20047;-60
2023/07/09 06:56:27;;;;;;;10.48;8.10;;;;;;;;;;5127679;27;20158;-59
2023/07/09 06:58:54;;;;;;;12.60;8.10;;;;;;;;;;5127350;27;20051;-60
2023/07/09 07:01:20;;;;;;;11.65;8.43;;;;;;;;;;5127366;27;20052;-62
2023/07/09 07:03:48;;;;;;;10.02;7.28;;;;;;;;;;5126595;27;20048;-61
2023/07/09 07:06:16;;;;;;;12.48;8.20;;;;;;;;;;5126088;27;20493;-62
2023/07/09 07:08:42;;;;;;;13.52;7.97;;;;;;;;;;5125997;27;20060;-62
2023/07/09 07:11:09;;;;;;;13.27;7.85;;;;;;;;;;5127559;27;20171;-58
2023/07/09 07:13:36;;;;;;;18.83;8.05;;;;;;;;;;5108319;27;20086;-58
2023/07/09 07:16:04;;;;;;;13.20;9.35;;;;;;;;;;5125457;27;20583;-60
2023/07/09 07:18:31;;;;;;;10.80;7.00;;;;;;;;;;5114621;27;20052;-62
2023/07/09 07:20:58;;;;;;;9.27;7.25;;;;;;;;;;5108576;27;20513;-62
2023/07/09 07:23:24;;;;;;;12.30;7.47;;;;;;;;;;5125113;27;20082;-62
2023/07/09 07:25:51;;;;;;;14.57;7.65;;;;;;;;;;5126368;27;20051;-63
2023/07/09 07:28:18;;;;;;;11.90;6.82;;;;;;;;;;5125682;27;20081;-59
2023/07/09 07:30:44;;;;;;;12.63;6.75;;;;;;;;;;5125689;27;20139;-66
2023/07/09 07:33:13;;;;;;;8.73;7.00;;;;;;;;;;5121189;27;20372;-69
2023/07/09 07:35:39;;;;;;;9.82;6.93;;;;;;;;;;5126644;27;20544;-68
2023/07/09 07:38:26;;;;;;;11.05;7.53;;;;;;;;;;5126629;27;20055;-69
2023/07/09 07:40:53;;;;;;;8.90;6.68;;;;;;;;;;5126578;27;20063;-69
2023/07/09 07:43:19;;;;;;;11.77;6.68;;;;;;;;;;5126267;27;20055;-66
2023/07/09 07:45:47;;;;;;;9.60;6.57;;;;;;;;;;5126429;27;20059;-69
2023/07/09 07:48:14;;;;;;;10.85;7.07;;;;;;;;;;5126013;27;20062;-65
2023/07/09 07:50:40;;;;;;;14.02;7.18;;;;;;;;;;5126034;27;20101;-68
2023/07/09 07:53:08;;;;;;;14.82;7.38;;;;;;;;;;5126164;27;20511;-68
2023/07/09 07:55:36;;;;;;;11.15;6.25;;;;;;;;;;5108112;27;20831;-68
2023/07/09 07:58:03;;;;;;;8.27;6.80;;;;;;;;;;5126254;27;20047;-65
2023/07/09 08:00:30;;;;;;;14.23;7.53;;;;;;;;;;5126395;27;20401;-68
2023/07/09 08:02:57;;;;;;;11.85;6.80;;;;;;;;;;5125701;27;20093;-68
2023/07/09 08:05:24;;;;;;;14.40;5.93;;;;;;;;;;5125712;27;20600;-67
2023/07/09 08:07:51;;;;;;;10.65;6.93;;;;;;;;;;5107843;27;20056;-68
2023/07/09 08:10:18;;;;;;;15.93;6.22;;;;;;;;;;5126122;27;20098;-64
2023/07/09 08:12:44;;;;;;;11.18;5.88;;;;;;;;;;5126239;27;20130;-66
2023/07/09 08:15:10;;;;;;;8.38;5.65;;;;;;;;;;5125695;27;20055;-67
2023/07/09 08:17:37;;;;;;;10.57;5.90;;;;;;;;;;5126156;27;20104;-67
2023/07/09 08:20:04;;;;;;;8.77;6.15;;;;;;;;;;5107534;27;20081;-63
2023/07/09 08:22:30;;;;;;;9.45;6.00;;;;;;;;;;5126042;27;20127;-67
2023/07/09 08:24:57;;;;;;;12.07;6.13;;;;;;;;;;5126228;27;20555;-64
2023/07/09 08:27:24;;;;;;;9.43;6.40;;;;;;;;;;5107163;27;20048;-66
2023/07/09 08:29:50;;;;;;;10.27;5.82;;;;;;;;;;5125132;27;20059;-63
2023/07/09 08:32:16;;;;;;;17.83;8.05;;;;;;;;;;5124533;27;20133;-68
2023/07/09 08:34:43;;;;;;;13.88;7.93;;;;;;;;;;5106556;27;20221;-67
2023/07/09 08:37:29;;;;;;;9.15;7.15;;;;;;;;;;5125455;27;20532;-66
2023/07/09 08:39:56;;;;;;;9.63;7.07;;;;;;;;;;5120952;27;20062;-50
2023/07/09 08:42:35;;;;;;;8.50;7.30;;;;;;;;;;5125195;27;20051;-63
2023/07/09 08:45:28;;;;;;;10.73;6.50;;;;;;;;;;5124972;27;20521;-68
2023/07/09 08:47:54;;;;;;;11.10;6.85;;;;;;;;;;5121226;27;20056;-68
2023/07/09 08:50:22;;;;;;;9.25;6.75;;;;;;;;;;5124845;27;20044;-65
2023/07/09 08:52:49;;;;;;;8.48;6.25;;;;;;;;;;5125293;27;20051;-65
2023/07/09 08:55:17;;;;;;;11.40;7.38;;;;;;;;;;5125403;27;20051;-63
2023/07/09 08:57:49;;;;;;;12.63;7.72;;;;;;;;;;5125343;27;20054;-70
2023/07/09 09:00:18;;;;;;;8.40;7.10;;;;;;;;;;5125596;27;20859;-64
2023/07/09 09:02:48;;;;;;;18.30;8.55;;;;;;;;;;5125421;27;20117;-66
2023/07/09 09:05:17;;;;;;;12.48;8.52;;;;;;;;;;5124987;27;20052;-67
2023/07/09 09:07:44;;;;;;;16.83;7.95;;;;;;;;;;5124813;27;20056;-67
2023/07/09 09:10:16;;;;;;;10.55;8.52;;;;;;;;;;5123226;27;20234;-66
2023/07/09 09:12:51;;;;;;;9.40;7.05;;;;;;;;;;5123990;27;20055;-64
2023/07/09 09:15:20;;;;;;;12.70;8.15;;;;;;;;;;5119898;27;20086;-67
2023/07/09 09:17:49;;;;;;;15.50;8.57;;;;;;;;;;5124209;27;20052;-64
2023/07/09 09:20:19;;;;;;;10.98;7.65;;;;;;;;;;5123854;27;20429;-63
2023/07/09 09:22:50;;;;;;;12.35;7.85;;;;;;;;;;5126589;27;20580;-69
2023/07/09 09:25:24;;;;;;;9.80;7.22;;;;;;;;;;5124830;27;20058;-67
2023/07/09 09:27:51;;;;;;;10.98;7.00;;;;;;;;;;5124420;27;20087;-62
2023/07/09 09:30:23;;;;;;;20.63;8.25;;;;;;;;;;5124038;27;20083;-68
2023/07/09 09:32:54;;;;;;;16.58;8.40;;;;;;;;;;5123557;27;20047;-66
2023/07/09 09:35:25;;;;;;;16.75;9.48;;;;;;;;;;5125141;27;20513;-66
2023/07/09 09:37:52;;;;;;;12.70;9.70;;;;;;;;;;5126274;27;20125;-68
2023/07/09 09:40:23;;;;;;;17.92;11.70;;;;;;;;;;5124219;27;20051;-68
2023/07/09 09:42:50;;;;;;;19.77;12.52;;;;;;;;;;5124146;27;20517;-64
2023/07/09 09:45:19;;;;;;;19.92;11.10;;;;;;;;;;5125005;27;20430;-65
2023/07/09 09:47:45;;;;;;;15.57;10.57;;;;;;;;;;5123740;27;20052;-65
2023/07/09 09:50:15;;;;;;;14.20;11.45;;;;;;;;;;5124190;27;20058;-65
2023/07/09 09:52:42;;;;;;;12.63;10.07;;;;;;;;;;5124406;27;20060;-66
2023/07/09 09:55:19;;;;;;;13.38;10.05;;;;;;;;;;5124012;27;20681;-64
2023/07/09 09:57:50;;;;;;;17.50;12.00;;;;;;;;;;5124384;27;20059;-65
2023/07/09 10:00:17;;;;;;;16.23;10.02;;;;;;;;;;5124417;27;20056;-66
2023/07/09 10:02:45;;;;;;;17.63;8.98;;;;;;;;;;5123189;27;20523;-64
2023/07/09 10:05:12;;;;;;;15.23;10.00;;;;;;;;;;5124104;27;20077;-63
2023/07/09 10:07:42;;;;;;;11.95;8.77;;;;;;;;;;5124254;27;20505;-65
2023/07/09 10:10:19;;;;;;;12.73;8.43;;;;;;;;;;5124146;27;20063;-63
2023/07/09 10:12:47;;;;;;;12.25;8.30;;;;;;;;;;5105845;27;20057;-66
2023/07/09 10:15:26;;;;;;;10.38;8.80;;;;;;;;;;5123520;27;20062;-65
2023/07/09 10:18:00;;;;;;;10.20;7.38;;;;;;;;;;5103382;28;20048;-62
2023/07/09 10:20:30;;;;;;;11.13;7.95;;;;;;;;;;5106043;27;20047;-66
2023/07/09 10:23:15;;;;;;;13.95;8.75;;;;;;;;;;5124221;27;20047;-65
2023/07/09 10:26:00;;;;;;;14.02;7.97;;;;;;;;;;5125015;27;20052;-63
2023/07/09 10:28:45;;;;;;;11.55;8.38;;;;;;;;;;5127647;27;20134;-66
2023/07/09 10:31:31;;;;;;;12.57;9.00;;;;;;;;;;5127545;27;20109;-67
2023/07/09 10:34:04;;;;;;;11.93;7.75;;;;;;;;;;5127444;27;20465;-64
2023/07/09 10:36:47;;;;;;;11.27;8.40;;;;;;;;;;5126810;27;20146;-66
2023/07/09 10:39:17;;;;;;;10.32;8.90;;;;;;;;;;5127390;27;20132;-64
2023/07/09 10:41:43;;;;;;;13.57;7.95;;;;;;;;;;5127410;27;20052;-67
2023/07/09 10:44:21;;;;;;;9.45;7.90;;;;;;;;;;5127230;27;20641;-66
2023/07/09 10:46:50;;;;;;;13.85;8.02;;;;;;;;;;5126682;27;20048;-66
2023/07/09 10:49:17;;;;;;;12.73;8.75;;;;;;;;;;5127233;27;20500;-65
2023/07/09 10:51:48;;;;;;;13.48;8.73;;;;;;;;;;5126975;27;20065;-63
2023/07/09 10:54:34;;;;;;;18.20;7.97;;;;;;;;;;5126687;27;20043;-67
2023/07/09 10:57:10;;;;;;;9.82;7.93;;;;;;;;;;5127882;27;20443;-67
2023/07/09 10:59:39;;;;;;;10.30;7.82;;;;;;;;;;5127214;27;20537;-66
2023/07/09 11:02:09;;;;;;;11.55;7.70;;;;;;;;;;5126370;27;20071;-64
2023/07/09 11:04:48;;;;;;;14.68;8.85;;;;;;;;;;5108795;27;20079;-67
2023/07/09 11:07:18;;;;;;;15.07;9.02;;;;;;;;;;5124478;27;20083;-66
2023/07/09 11:09:46;;;;;;;11.98;9.50;;;;;;;;;;5125839;27;20464;-65
2023/07/09 11:12:14;;;;;;;9.68;8.48;;;;;;;;;;5124448;27;20139;-65
2023/07/09 11:14:45;;;;;;;15.80;9.65;;;;;;;;;;5125238;27;20052;-64
2023/07/09 11:17:17;;;;;;;15.85;9.20;;;;;;;;;;5124710;27;20056;-63
2023/07/09 11:19:46;;;;;;;11.48;8.15;;;;;;;;;;5105520;27;20495;-64
2023/07/09 11:22:16;;;;;;;9.20;7.15;;;;;;;;;;5124833;27;20051;-65
2023/07/09 11:24:52;;;;;;;9.75;7.05;;;;;;;;;;5128200;27;20052;-65
2023/07/09 11:27:26;;;;;;;10.82;7.82;;;;;;;;;;5125574;27;20132;-61
2023/07/09 11:29:57;;;;;;;9.80;7.37;;;;;;;;;;5129608;27;20055;-63
2023/07/09 11:32:24;;;;;;;10.48;6.57;;;;;;;;;;5087802;27;20517;-66
2023/07/09 11:34:50;;;;;;;11.75;7.50;;;;;;;;;;5125818;27;20048;-64
2023/07/09 11:37:17;;;;;;;8.75;7.13;;;;;;;;;;5126577;27;20047;-62
2023/07/09 11:39:45;;;;;;;10.07;5.60;;;;;;;;;;5126697;27;20144;-66
2023/07/09 11:42:24;;;;;;;6.25;5.20;;;;;;;;;;5105577;27;20086;-65
2023/07/09 11:44:54;;;;;;;8.65;6.10;;;;;;;;;;5108247;27;20057;-65
2023/07/09 11:47:22;;;;;;;8.07;5.90;;;;;;;;;;5110791;27;20047;-66
2023/07/09 11:49:51;;;;;;;8.43;5.35;;;;;;;;;;5116577;27;20055;-65
2023/07/09 11:52:20;;;;;;;9.88;5.43;;;;;;;;;;5100009;27;20062;-65
2023/07/09 11:54:47;;;;;;;5.97;5.20;;;;;;;;;;5124978;27;20657;-64
2023/07/09 11:57:14;;;;;;;14.80;5.75;;;;;;;;;;5125659;27;20051;-64
2023/07/09 11:59:41;;;;;;;8.13;5.30;;;;;;;;;;5122585;27;20426;-62
2023/07/09 12:02:13;;;;;;;6.80;5.40;;;;;;;;;;5124856;27;20745;-62
2023/07/09 12:04:41;;;;;;;5.90;4.60;;;;;;;;;;5125738;27;20152;-66
2023/07/09 12:07:10;;;;;;;7.97;5.30;;;;;;;;;;5123459;27;20273;-63
2023/07/09 12:09:39;;;;;;;6.93;4.90;;;;;;;;;;5104646;27;20143;-65
2023/07/09 12:12:16;;;;;;;10.07;5.05;;;;;;;;;;5105550;27;20079;-64
2023/07/09 12:14:42;;;;;;;5.38;4.57;;;;;;;;;;5124089;27;20085;-65
2023/07/09 12:17:09;;;;;;;7.78;4.63;;;;;;;;;;5121398;27;20052;-61
2023/07/09 12:19:35;;;;;;;6.63;5.45;;;;;;;;;;5106587;27;20056;-65
2023/07/09 12:22:06;;;;;;;6.18;5.10;;;;;;;;;;5125458;27;20156;-64
2023/07/09 12:24:37;;;;;;;6.90;4.78;;;;;;;;;;5125553;27;20051;-65
2023/07/09 12:27:16;;;;;;;6.78;5.32;;;;;;;;;;5124247;27;20059;-65
2023/07/09 12:29:42;;;;;;;13.00;5.03;;;;;;;;;;5125211;27;20663;-65
2023/07/09 12:32:14;;;;;;;7.18;5.45;;;;;;;;;;5124060;27;20102;-63
2023/07/09 12:34:41;;;;;;;7.25;5.40;;;;;;;;;;5123647;27;20113;-64
2023/07/09 12:37:15;;;;;;;9.10;5.20;;;;;;;;;;5123867;27;20059;-60
2023/07/09 12:39:41;;;;;;;8.30;5.60;;;;;;;;;;5123419;27;20055;-64
2023/07/09 12:42:15;;;;;;;6.45;4.85;;;;;;;;;;5123397;27;20051;-64
2023/07/09 12:44:42;;;;;;;6.05;4.90;;;;;;;;;;5125362;27;20529;-66
2023/07/09 12:47:12;;;;;;;6.93;5.05;;;;;;;;;;5124007;27;20487;-66
2023/07/09 12:49:44;;;;;;;7.78;5.07;;;;;;;;;;5104822;27;20055;-66
2023/07/09 12:52:13;;;;;;;7.93;4.95;;;;;;;;;;5113958;27;20056;-66
2023/07/09 12:54:40;;;;;;;14.98;5.95;;;;;;;;;;5123899;27;20048;-65
2023/07/09 12:57:14;;;;;;;14.57;6.13;;;;;;;;;;5124435;27;20086;-62
2023/07/09 12:59:41;;;;;;;10.25;5.95;;;;;;;;;;5123150;27;20143;-65
2023/07/09 13:02:07;;;;;;;10.60;5.55;;;;;;;;;;5124720;27;20142;-61
2023/07/09 13:04:36;;;;;;;7.50;5.25;;;;;;;;;;5123684;27;20051;-65
2023/07/09 13:07:04;;;;;;;9.30;4.70;;;;;;;;;;5125148;27;20059;-65
2023/07/09 13:09:30;;;;;;;7.82;4.70;;;;;;;;;;5122114;27;20052;-65
2023/07/09 13:11:57;;;;;;;6.28;4.63;;;;;;;;;;5105494;27;20060;-62
2023/07/09 13:14:25;;;;;;;6.70;4.75;;;;;;;;;;5137009;27;20580;-64
2023/07/09 13:16:52;;;;;;;7.85;4.50;;;;;;;;;;5104823;27;20055;-63
2023/07/09 13:19:18;;;;;;;6.20;4.18;;;;;;;;;;5118716;27;20458;-62
2023/07/09 13:21:45;;;;;;;4.68;3.38;;;;;;;;;;5122645;27;20061;-66
2023/07/09 13:24:17;;;;;;;6.43;4.20;;;;;;;;;;5121873;27;20524;-65
2023/07/09 13:26:43;;;;;;;4.78;4.03;;;;;;;;;;5111511;27;20063;-62
2023/07/09 13:29:17;;;;;;;7.72;4.80;;;;;;;;;;5121621;27;20060;-65
2023/07/09 13:31:44;;;;;;;5.97;4.32;;;;;;;;;;5122489;27;20047;-65
2023/07/09 13:34:18;;;;;;;6.18;4.15;;;;;;;;;;5124003;27;20627;-64
2023/07/09 13:36:44;;;;;;;8.73;4.30;;;;;;;;;;5123042;27;20055;-63
2023/07/09 13:39:12;;;;;;;5.13;4.20;;;;;;;;;;5122332;27;20051;-63
2023/07/09 13:41:39;;;;;;;13.85;4.45;;;;;;;;;;5123617;27;20044;-65
2023/07/09 13:44:11;;;;;;;5.15;4.07;;;;;;;;;;5124169;27;20109;-64
2023/07/09 13:46:38;;;;;;;7.95;4.80;;;;;;;;;;5121799;27;20134;-64
2023/07/09 13:49:08;;;;;;;5.85;4.85;;;;;;;;;;5125343;27;20043;-65
2023/07/09 13:51:34;;;;;;;7.95;4.55;;;;;;;;;;5122540;27;20051;-64
2023/07/09 13:54:03;;;;;;;7.10;4.32;;;;;;;;;;5122433;27;20048;-65
2023/07/09 13:56:29;;;;;;;7.53;4.25;;;;;;;;;;5104398;27;20056;-64
2023/07/09 13:58:56;;;;;;;8.32;4.35;;;;;;;;;;5122335;27;20051;-65
2023/07/09 14:01:23;;;;;;;4.45;3.25;;;;;;;;;;5122184;27;20100;-64
2023/07/09 14:03:52;;;;;;;5.85;3.40;;;;;;;;;;5122690;27;20054;-63
2023/07/09 14:06:18;;;;;;;8.75;3.15;;;;;;;;;;5123091;27;20183;-64
2023/07/09 14:08:45;;;;;;;8.07;3.03;;;;;;;;;;5118780;27;20071;-61
2023/07/09 14:11:14;;;;;;;5.03;2.75;;;;;;;;;;5123422;27;20055;-63
2023/07/09 14:13:40;;;;;;;7.45;2.75;;;;;;;;;;5123208;27;20059;-64
2023/07/09 14:16:11;;;;;;;7.55;3.20;;;;;;;;;;5122822;27;20055;-62
2023/07/09 14:18:38;;;;;;;9.15;2.75;;;;;;;;;;5123034;27;20541;-62
2023/07/09 14:21:18;;;;;;;4.32;2.60;;;;;;;;;;5121657;27;20509;-62
2023/07/09 14:23:45;;;;;;;9.93;3.45;;;;;;;;;;5122786;27;20129;-65
2023/07/09 14:26:12;;;;;;;7.13;3.90;;;;;;;;;;5123623;27;20511;-65
2023/07/09 14:28:38;;;;;;;8.77;3.50;;;;;;;;;;5121853;27;20071;-62
2023/07/09 14:31:17;;;;;;;10.00;4.28;;;;;;;;;;5121459;27;20047;-65
2023/07/09 14:33:43;;;;;;;7.90;3.20;;;;;;;;;;5110843;27;20060;-65
2023/07/09 14:36:10;;;;;;;6.57;3.28;;;;;;;;;;5123068;27;20059;-63
2023/07/09 14:38:36;;;;;;;6.95;3.80;;;;;;;;;;5122454;27;20052;-65
2023/07/09 14:41:08;;;;;;;6.35;2.83;;;;;;;;;;5122231;27;20047;-65